Boynton Beach, FL (33435)

10:13 PM EST on February 10, 2016 (GMT -0500)
Forest Park | | Change Station
CLOSE
Current Station
Personal Weather Station
Location: Boynton Beach, FL
Elevation: 15 ft
Nearby Weather Stations

Elev 15 ft 26.52 °N, 80.07 °W | Updated 2 seconds ago

Partly Cloudy
Partly Cloudy
57.4 °F
Feels Like 57.4 °F
N
2.3
Wind Variable Wind from WSW
Gusts 2.3 mph

Today
High -- | Low -- °F
--% Chance of Precip.
Yesterday
High -- | Low -- °F
Precip. -- in
Pressure 30.26 in
Visibility 10.0 miles
Clouds Few 25000 ft
Dew Point 46 °F
Humidity 66%
Rainfall in
Snow Depth Not available.
7:00 AM 6:09 PM
Waxing Crescent, 9% visible
METAR KPBI 110253Z 29010KT 10SM FEW250 12/06 A3026 RMK AO2 SLP247 T01170061 51013
Pressure 30.26 in
Visibility 10.0 miles
Clouds Few 25000 ft
Dew Point 46 °F
Humidity 66%
Rainfall in
Snow Depth Not available.
7:00 AM 6:09 PM
Waxing Crescent, 9% visible
METAR KPBI 110253Z 29010KT 10SM FEW250 12/06 A3026 RMK AO2 SLP247 T01170061 51013

10-Day Weather Forecast

Almanac

Astronomy

Feb. 10, 2016 Rise Set
Actual Time
Civil Twilight
Nautical Twilight
Astronomical Twilight
Moon
Length of Visible Light
Length of Day
Tomorrow will be .
, % of the Moon is Illuminated

Today's Extremes

State Highs State Lows

Community

WunderPhotos

Upload Photos

1,891,993 photos uploaded!

WunderBlog® & News

Nearby

Air Quality

  Air Quality AQ Index Pollutant
Not available.

Snow Depth

Station Depth Elevation

Earthquake Activity

City Distance Mag. Time & Date
Minimum magnitude displayed is 2.5.

Coastal Water Temperatures

Place Temperature

Stations

Nearby Weather Stations

Station Location Temp. Windchill Dew Point Humidity Wind Precip. Elev Updated Type
                   

Watches & Warnings

There are currently no watches in effect.